Terminal Aerodrome Forecast
Issued by NWS Louisville, KY

Home | Current Version | Previous Version | Text Only | Print | Product List | Glossary On
Versions: 1 2 3 4 5 6 7 8 9 10 11 12 13 14 15
204
FTUS43 KLMK 100520
TAFSDF
TAF
KSDF 100520Z 1006/1112 26004KT P6SM BKN030 BKN250
     FM101000 24004KT P6SM SCT035
     FM101800 VRB04KT P6SM BKN160=

USA.gov is the U.S. government's official web portal to all federal, state and local government web resources and services.